sensor_id;sensor_type;location;lat;lon;timestamp;pressure;altitude;pressure_sealevel;temperature;humidity
59272;BME280;45043;51.068;7.026;2022-09-27T00:01:15;98436.09;;;7.10;73.35
59272;BME280;45043;51.068;7.026;2022-09-27T00:04:16;98429.19;;;7.09;73.33
59272;BME280;45043;51.068;7.026;2022-09-27T00:07:16;98440.13;;;7.13;73.27
59272;BME280;45043;51.068;7.026;2022-09-27T00:10:17;98442.53;;;7.14;72.99
59272;BME280;45043;51.068;7.026;2022-09-27T00:13:17;98428.00;;;7.05;72.96
59272;BME280;45043;51.068;7.026;2022-09-27T00:16:18;98430.34;;;7.13;73.11
59272;BME280;45043;51.068;7.026;2022-09-27T00:19:20;98451.50;;;7.13;73.11
59272;BME280;45043;51.068;7.026;2022-09-27T00:22:22;98479.81;;;7.06;73.01
59272;BME280;45043;51.068;7.026;2022-09-27T00:25:23;98469.56;;;6.98;73.11
59272;BME280;45043;51.068;7.026;2022-09-27T00:28:24;98475.28;;;6.95;72.93
59272;BME280;45043;51.068;7.026;2022-09-27T00:31:29;98475.72;;;6.92;72.94
59272;BME280;45043;51.068;7.026;2022-09-27T00:34:30;98486.72;;;6.89;72.95
59272;BME280;45043;51.068;7.026;2022-09-27T00:37:30;98471.66;;;6.89;72.76
59272;BME280;45043;51.068;7.026;2022-09-27T00:40:31;98474.53;;;6.88;72.74
59272;BME280;45043;51.068;7.026;2022-09-27T00:43:45;98489.56;;;6.87;72.41
59272;BME280;45043;51.068;7.026;2022-09-27T00:46:50;98488.78;;;6.86;72.43
59272;BME280;45043;51.068;7.026;2022-09-27T00:50:07;98481.88;;;6.85;72.67
59272;BME280;45043;51.068;7.026;2022-09-27T00:56:21;98479.81;;;6.88;72.32
59272;BME280;45043;51.068;7.026;2022-09-27T01:00:07;98489.00;;;6.78;72.53
59272;BME280;45043;51.068;7.026;2022-09-27T01:03:14;98489.78;;;6.85;72.59
59272;BME280;45043;51.068;7.026;2022-09-27T01:06:19;98484.66;;;6.91;72.47
59272;BME280;45043;51.068;7.026;2022-09-27T01:09:21;98481.00;;;6.92;72.94
59272;BME280;45043;51.068;7.026;2022-09-27T01:12:44;98475.72;;;6.92;72.57
59272;BME280;45043;51.068;7.026;2022-09-27T01:16:05;98496.38;;;6.95;72.64
59272;BME280;45043;51.068;7.026;2022-09-27T01:32:50;98491.53;;;6.73;72.85
59272;BME280;45043;51.068;7.026;2022-09-27T01:42:40;98497.47;;;6.69;72.99
59272;BME280;45043;51.068;7.026;2022-09-27T01:45:51;98525.09;;;6.66;73.00
59272;BME280;45043;51.068;7.026;2022-09-27T01:49:24;98513.34;;;6.62;73.07
59272;BME280;45043;51.068;7.026;2022-09-27T01:52:32;98494.47;;;6.65;72.93
59272;BME280;45043;51.068;7.026;2022-09-27T01:55:37;98506.63;;;6.66;72.98
59272;BME280;45043;51.068;7.026;2022-09-27T02:02:17;98500.03;;;6.57;73.17
59272;BME280;45043;51.068;7.026;2022-09-27T02:05:52;98509.53;;;6.58;73.36
59272;BME280;45043;51.068;7.026;2022-09-27T02:09:22;98505.66;;;6.60;73.21
59272;BME280;45043;51.068;7.026;2022-09-27T02:12:38;98507.47;;;6.60;73.07
59272;BME280;45043;51.068;7.026;2022-09-27T02:15:56;98511.16;;;6.59;72.80
59272;BME280;45043;51.068;7.026;2022-09-27T02:19:47;98512.63;;;6.55;73.08
59272;BME280;45043;51.068;7.026;2022-09-27T02:26:16;98515.03;;;6.56;73.14
59272;BME280;45043;51.068;7.026;2022-09-27T02:29:23;98519.06;;;6.59;73.32
59272;BME280;45043;51.068;7.026;2022-09-27T02:32:28;98549.91;;;6.58;73.29
59272;BME280;45043;51.068;7.026;2022-09-27T02:35:34;98528.16;;;6.63;73.22
59272;BME280;45043;51.068;7.026;2022-09-27T02:38:35;98524.34;;;6.59;73.26
59272;BME280;45043;51.068;7.026;2022-09-27T02:41:36;98522.88;;;6.63;73.28
59272;BME280;45043;51.068;7.026;2022-09-27T02:44:37;98526.97;;;6.59;73.23
59272;BME280;45043;51.068;7.026;2022-09-27T02:48:03;98540.16;;;6.59;73.19
59272;BME280;45043;51.068;7.026;2022-09-27T02:55:33;98534.94;;;6.52;72.94
59272;BME280;45043;51.068;7.026;2022-09-27T02:59:05;98536.59;;;6.53;73.35
59272;BME280;45043;51.068;7.026;2022-09-27T03:06:10;98542.66;;;6.54;72.99
59272;BME280;45043;51.068;7.026;2022-09-27T03:09:28;98541.88;;;6.53;72.74
59272;BME280;45043;51.068;7.026;2022-09-27T03:12:29;98552.78;;;6.57;73.16
59272;BME280;45043;51.068;7.026;2022-09-27T03:15:29;98562.06;;;6.59;72.90
59272;BME280;45043;51.068;7.026;2022-09-27T03:18:36;98554.16;;;6.59;72.87
59272;BME280;45043;51.068;7.026;2022-09-27T03:21:55;98559.06;;;6.56;72.62
59272;BME280;45043;51.068;7.026;2022-09-27T03:24:55;98547.94;;;6.54;72.84
59272;BME280;45043;51.068;7.026;2022-09-27T03:27:56;98563.78;;;6.54;72.69
59272;BME280;45043;51.068;7.026;2022-09-27T03:30:57;98572.69;;;6.53;72.52
59272;BME280;45043;51.068;7.026;2022-09-27T03:34:17;98596.50;;;6.46;72.68
59272;BME280;45043;51.068;7.026;2022-09-27T03:37:19;98577.66;;;6.43;72.81
59272;BME280;45043;51.068;7.026;2022-09-27T03:40:19;98570.75;;;6.42;72.58
59272;BME280;45043;51.068;7.026;2022-09-27T03:43:20;98569.56;;;6.37;72.92
59272;BME280;45043;51.068;7.026;2022-09-27T03:46:21;98587.19;;;6.44;72.69
59272;BME280;45043;51.068;7.026;2022-09-27T03:49:21;98577.66;;;6.43;72.58
59272;BME280;45043;51.068;7.026;2022-09-27T03:52:21;98583.13;;;6.41;72.27
59272;BME280;45043;51.068;7.026;2022-09-27T03:55:23;98585.81;;;6.34;72.29
59272;BME280;45043;51.068;7.026;2022-09-27T03:58:23;98575.34;;;6.28;72.20
59272;BME280;45043;51.068;7.026;2022-09-27T04:01:24;98582.66;;;6.26;72.24
59272;BME280;45043;51.068;7.026;2022-09-27T04:04:30;98594.44;;;6.23;71.94
59272;BME280;45043;51.068;7.026;2022-09-27T04:07:31;98589.16;;;6.23;72.26
59272;BME280;45043;51.068;7.026;2022-09-27T04:10:31;98584.09;;;6.22;72.16
59272;BME280;45043;51.068;7.026;2022-09-27T04:13:32;98578.44;;;6.18;72.06
59272;BME280;45043;51.068;7.026;2022-09-27T04:16:33;98585.34;;;6.19;72.30
59272;BME280;45043;51.068;7.026;2022-09-27T04:19:55;98586.97;;;6.20;71.64
59272;BME280;45043;51.068;7.026;2022-09-27T04:22:56;98581.25;;;6.23;72.20
59272;BME280;45043;51.068;7.026;2022-09-27T04:25:56;98584.47;;;6.25;71.89
59272;BME280;45043;51.068;7.026;2022-09-27T04:29:23;98589.16;;;6.23;72.08
59272;BME280;45043;51.068;7.026;2022-09-27T04:32:26;98587.94;;;6.26;71.66
59272;BME280;45043;51.068;7.026;2022-09-27T04:35:52;98595.47;;;6.22;71.71
59272;BME280;45043;51.068;7.026;2022-09-27T04:39:35;98588.78;;;6.20;71.46
59272;BME280;45043;51.068;7.026;2022-09-27T04:42:36;98590.00;;;6.24;71.34
59272;BME280;45043;51.068;7.026;2022-09-27T04:45:37;98606.75;;;6.29;71.85
59272;BME280;45043;51.068;7.026;2022-09-27T04:48:37;98588.09;;;6.56;71.42
59272;BME280;45043;51.068;7.026;2022-09-27T04:51:38;98603.75;;;6.76;71.03
59272;BME280;45043;51.068;7.026;2022-09-27T04:54:38;98595.53;;;6.91;70.33
59272;BME280;45043;51.068;7.026;2022-09-27T04:57:46;98615.09;;;7.01;69.73
59272;BME280;45043;51.068;7.026;2022-09-27T05:00:48;98607.53;;;7.05;69.38
59272;BME280;45043;51.068;7.026;2022-09-27T05:04:12;98616.19;;;7.12;69.15
59272;BME280;45043;51.068;7.026;2022-09-27T05:07:17;98614.59;;;7.11;68.54
59272;BME280;45043;51.068;7.026;2022-09-27T05:10:20;98616.13;;;7.19;68.48
59272;BME280;45043;51.068;7.026;2022-09-27T05:13:21;98623.41;;;7.23;68.07
59272;BME280;45043;51.068;7.026;2022-09-27T05:16:21;98623.13;;;7.31;68.43
59272;BME280;45043;51.068;7.026;2022-09-27T05:19:49;98622.38;;;7.61;67.75
59272;BME280;45043;51.068;7.026;2022-09-27T05:22:54;98618.06;;;7.78;67.55
59272;BME280;45043;51.068;7.026;2022-09-27T05:25:55;98641.47;;;7.93;66.90
59272;BME280;45043;51.068;7.026;2022-09-27T05:28:56;98632.63;;;7.99;66.22
59272;BME280;45043;51.068;7.026;2022-09-27T05:31:57;98627.84;;;8.08;65.53
59272;BME280;45043;51.068;7.026;2022-09-27T05:34:57;98625.22;;;8.20;65.19
59272;BME280;45043;51.068;7.026;2022-09-27T05:37:59;98635.19;;;8.24;64.45
59272;BME280;45043;51.068;7.026;2022-09-27T05:41:02;98644.72;;;8.25;64.21
59272;BME280;45043;51.068;7.026;2022-09-27T05:44:05;98649.56;;;8.28;63.99
59272;BME280;45043;51.068;7.026;2022-09-27T05:47:06;98665.00;;;8.31;63.69
59272;BME280;45043;51.068;7.026;2022-09-27T05:50:07;98664.50;;;8.35;62.85
59272;BME280;45043;51.068;7.026;2022-09-27T05:53:09;98665.00;;;8.31;62.57
59272;BME280;45043;51.068;7.026;2022-09-27T05:56:10;98677.69;;;8.23;62.93
59272;BME280;45043;51.068;7.026;2022-09-27T05:59:37;98671.31;;;8.12;62.60
59272;BME280;45043;51.068;7.026;2022-09-27T06:03:00;98671.66;;;8.16;61.86
59272;BME280;45043;51.068;7.026;2022-09-27T06:06:20;98681.75;;;8.25;61.97
59272;BME280;45043;51.068;7.026;2022-09-27T06:09:27;98680.88;;;8.31;61.62
59272;BME280;45043;51.068;7.026;2022-09-27T06:12:29;98659.69;;;8.31;61.09
59272;BME280;45043;51.068;7.026;2022-09-27T06:15:32;98670.72;;;8.28;61.06
59272;BME280;45043;51.068;7.026;2022-09-27T06:18:33;98675.41;;;8.26;60.78
59272;BME280;45043;51.068;7.026;2022-09-27T06:21:34;98670.41;;;8.18;60.46
59272;BME280;45043;51.068;7.026;2022-09-27T06:24:35;98672.31;;;7.99;61.06
59272;BME280;45043;51.068;7.026;2022-09-27T06:27:41;98672.25;;;7.88;60.82
59272;BME280;45043;51.068;7.026;2022-09-27T06:31:07;98688.44;;;7.79;61.68
59272;BME280;45043;51.068;7.026;2022-09-27T06:34:26;98672.41;;;7.74;61.41
59272;BME280;45043;51.068;7.026;2022-09-27T06:37:28;98675.28;;;7.73;61.55
59272;BME280;45043;51.068;7.026;2022-09-27T06:40:29;98682.06;;;7.69;61.82
59272;BME280;45043;51.068;7.026;2022-09-27T06:43:43;98682.84;;;7.69;61.93
59272;BME280;45043;51.068;7.026;2022-09-27T06:47:03;98681.16;;;7.75;61.82
59272;BME280;45043;51.068;7.026;2022-09-27T06:50:22;98681.50;;;7.78;61.66
59272;BME280;45043;51.068;7.026;2022-09-27T06:53:23;98685.13;;;7.84;61.76
59272;BME280;45043;51.068;7.026;2022-09-27T06:56:24;98692.25;;;7.83;61.95
59272;BME280;45043;51.068;7.026;2022-09-27T06:59:25;98689.13;;;7.87;61.76
59272;BME280;45043;51.068;7.026;2022-09-27T07:03:04;98693.72;;;7.79;62.00
59272;BME280;45043;51.068;7.026;2022-09-27T07:06:24;98699.56;;;7.81;62.15
59272;BME280;45043;51.068;7.026;2022-09-27T07:09:32;98716.91;;;7.77;62.21
59272;BME280;45043;51.068;7.026;2022-09-27T07:12:34;98730.50;;;7.81;62.10
59272;BME280;45043;51.068;7.026;2022-09-27T07:15:38;98727.63;;;7.82;62.37
59272;BME280;45043;51.068;7.026;2022-09-27T07:18:46;98720.84;;;7.87;62.05
59272;BME280;45043;51.068;7.026;2022-09-27T07:21:49;98716.16;;;7.89;62.03
59272;BME280;45043;51.068;7.026;2022-09-27T07:24:50;98740.03;;;7.82;62.15
59272;BME280;45043;51.068;7.026;2022-09-27T07:27:51;98746.00;;;7.77;62.31
59272;BME280;45043;51.068;7.026;2022-09-27T07:30:55;98751.88;;;7.79;62.26
59272;BME280;45043;51.068;7.026;2022-09-27T07:33:56;98757.88;;;7.68;62.23
59272;BME280;45043;51.068;7.026;2022-09-27T07:36:58;98752.44;;;7.63;62.51
59272;BME280;45043;51.068;7.026;2022-09-27T07:40:01;98752.81;;;7.67;62.43
59272;BME280;45043;51.068;7.026;2022-09-27T07:43:03;98750.41;;;7.65;62.37
59272;BME280;45043;51.068;7.026;2022-09-27T07:46:04;98751.13;;;7.72;62.19
59272;BME280;45043;51.068;7.026;2022-09-27T07:49:16;98759.50;;;7.69;62.10
59272;BME280;45043;51.068;7.026;2022-09-27T07:52:44;98755.81;;;7.70;62.30
59272;BME280;45043;51.068;7.026;2022-09-27T07:56:13;98757.28;;;7.66;62.51
59272;BME280;45043;51.068;7.026;2022-09-27T07:59:14;98764.78;;;7.69;62.41
59272;BME280;45043;51.068;7.026;2022-09-27T08:02:16;98767.00;;;7.72;62.43
59272;BME280;45043;51.068;7.026;2022-09-27T08:05:17;98772.06;;;7.74;62.09
59272;BME280;45043;51.068;7.026;2022-09-27T08:08:18;98769.41;;;7.74;62.32
59272;BME280;45043;51.068;7.026;2022-09-27T08:11:21;98765.81;;;7.68;62.39
59272;BME280;45043;51.068;7.026;2022-09-27T08:14:23;98773.28;;;7.71;62.55
59272;BME280;45043;51.068;7.026;2022-09-27T08:17:26;98774.69;;;7.74;62.22
59272;BME280;45043;51.068;7.026;2022-09-27T08:20:42;98782.19;;;7.77;62.42
59272;BME280;45043;51.068;7.026;2022-09-27T08:24:00;98774.56;;;7.87;62.31
59272;BME280;45043;51.068;7.026;2022-09-27T08:27:06;98787.25;;;7.97;62.04
59272;BME280;45043;51.068;7.026;2022-09-27T08:30:34;98781.81;;;7.92;61.82
59272;BME280;45043;51.068;7.026;2022-09-27T08:33:35;98808.81;;;7.75;62.05
59272;BME280;45043;51.068;7.026;2022-09-27T08:36:36;98784.44;;;7.55;62.30
59272;BME280;45043;51.068;7.026;2022-09-27T08:39:37;98795.03;;;7.30;62.83
59272;BME280;45043;51.068;7.026;2022-09-27T08:42:47;98792.88;;;7.20;63.00
59272;BME280;45043;51.068;7.026;2022-09-27T08:49:25;98798.41;;;7.12;63.20
59272;BME280;45043;51.068;7.026;2022-09-27T08:52:42;98803.31;;;7.08;63.33
59272;BME280;45043;51.068;7.026;2022-09-27T08:55:53;98803.16;;;7.03;63.72
59272;BME280;45043;51.068;7.026;2022-09-27T08:59:05;98790.34;;;7.07;63.81
59272;BME280;45043;51.068;7.026;2022-09-27T09:02:18;98795.63;;;7.07;63.69
59272;BME280;45043;51.068;7.026;2022-09-27T09:05:34;98811.84;;;7.10;63.63
59272;BME280;45043;51.068;7.026;2022-09-27T09:13:12;98810.22;;;7.09;63.63
59272;BME280;45043;51.068;7.026;2022-09-27T09:16:00;98792.94;;;7.14;63.59
59272;BME280;45043;51.068;7.026;2022-09-27T09:19:43;98792.13;;;7.13;63.61
59272;BME280;45043;51.068;7.026;2022-09-27T09:29:37;98797.38;;;7.38;62.64
59272;BME280;45043;51.068;7.026;2022-09-27T09:36:00;98794.13;;;7.43;62.09
59272;BME280;45043;51.068;7.026;2022-09-27T09:42:17;98800.53;;;7.28;62.26
59272;BME280;45043;51.068;7.026;2022-09-27T09:45:32;98774.53;;;7.25;62.05
59272;BME280;45043;51.068;7.026;2022-09-27T09:48:54;98771.09;;;7.25;62.22
59272;BME280;45043;51.068;7.026;2022-09-27T09:52:10;98773.78;;;7.18;62.01
59272;BME280;45043;51.068;7.026;2022-09-27T09:55:18;98778.78;;;7.26;61.37
59272;BME280;45043;51.068;7.026;2022-09-27T10:01:45;98771.47;;;7.28;61.53
59272;BME280;45043;51.068;7.026;2022-09-27T10:04:47;98776.06;;;7.40;61.66
59272;BME280;45043;51.068;7.026;2022-09-27T10:07:50;98776.19;;;7.45;61.34
59272;BME280;45043;51.068;7.026;2022-09-27T10:10:52;98772.09;;;7.49;61.04
59272;BME280;45043;51.068;7.026;2022-09-27T10:13:58;98765.94;;;7.55;60.39
59272;BME280;45043;51.068;7.026;2022-09-27T10:17:02;98777.91;;;7.57;60.46
59272;BME280;45043;51.068;7.026;2022-09-27T10:20:05;98755.59;;;7.53;60.58
59272;BME280;45043;51.068;7.026;2022-09-27T10:23:15;98802.34;;;7.53;60.57
59272;BME280;45043;51.068;7.026;2022-09-27T10:26:44;98763.91;;;7.57;60.49
59272;BME280;45043;51.068;7.026;2022-09-27T10:29:55;98763.91;;;7.57;60.00
59272;BME280;45043;51.068;7.026;2022-09-27T10:33:03;98773.44;;;7.58;60.08
59272;BME280;45043;51.068;7.026;2022-09-27T10:36:30;98752.44;;;7.63;60.60
59272;BME280;45043;51.068;7.026;2022-09-27T10:39:33;98761.34;;;7.69;60.40
59272;BME280;45043;51.068;7.026;2022-09-27T10:42:36;98753.19;;;7.70;60.53
59272;BME280;45043;51.068;7.026;2022-09-27T10:45:39;98770.22;;;7.74;60.33
59272;BME280;45043;51.068;7.026;2022-09-27T10:48:45;98765.91;;;7.80;60.29
59272;BME280;45043;51.068;7.026;2022-09-27T10:51:49;98743.72;;;7.81;60.25
59272;BME280;45043;51.068;7.026;2022-09-27T10:54:54;98776.31;;;7.75;60.00
59272;BME280;45043;51.068;7.026;2022-09-27T10:57:55;98780.84;;;7.68;60.06
59272;BME280;45043;51.068;7.026;2022-09-27T11:01:03;98773.38;;;7.65;60.24
59272;BME280;45043;51.068;7.026;2022-09-27T11:04:32;98760.50;;;7.50;61.08
59272;BME280;45043;51.068;7.026;2022-09-27T11:07:35;98759.78;;;7.43;61.66
59272;BME280;45043;51.068;7.026;2022-09-27T11:10:41;98769.88;;;7.27;62.11
59272;BME280;45043;51.068;7.026;2022-09-27T11:14:04;98765.53;;;7.08;63.09
59272;BME280;45043;51.068;7.026;2022-09-27T11:17:16;98758.50;;;7.02;63.58
59272;BME280;45043;51.068;7.026;2022-09-27T11:20:35;98764.19;;;6.99;64.13
59272;BME280;45043;51.068;7.026;2022-09-27T11:23:41;98767.41;;;7.01;64.29
59272;BME280;45043;51.068;7.026;2022-09-27T11:30:15;98762.63;;;7.16;64.78
59272;BME280;45043;51.068;7.026;2022-09-27T11:33:49;98766.63;;;7.25;65.03
59272;BME280;45043;51.068;7.026;2022-09-27T11:47:44;98748.63;;;7.77;63.65
59272;BME280;45043;51.068;7.026;2022-09-27T11:54:30;98732.13;;;8.12;63.72
59272;BME280;45043;51.068;7.026;2022-09-27T11:57:41;98737.13;;;8.39;63.22
59272;BME280;45043;51.068;7.026;2022-09-27T12:07:27;98724.41;;;8.59;61.04
59272;BME280;45043;51.068;7.026;2022-09-27T12:10:32;98737.97;;;8.51;61.46
59272;BME280;45043;51.068;7.026;2022-09-27T12:14:00;98722.44;;;8.43;61.43
59272;BME280;45043;51.068;7.026;2022-09-27T12:17:10;98723.75;;;8.34;61.20
59272;BME280;45043;51.068;7.026;2022-09-27T12:20:18;98721.44;;;8.25;61.68
59272;BME280;45043;51.068;7.026;2022-09-27T12:23:32;98720.31;;;8.33;61.51
59272;BME280;45043;51.068;7.026;2022-09-27T12:27:00;98712.72;;;8.37;61.10
59272;BME280;45043;51.068;7.026;2022-09-27T12:30:03;98715.66;;;8.47;60.76
59272;BME280;45043;51.068;7.026;2022-09-27T12:33:27;98711.78;;;8.61;60.17
59272;BME280;45043;51.068;7.026;2022-09-27T12:36:32;98715.59;;;8.77;59.97
59272;BME280;45043;51.068;7.026;2022-09-27T12:39:59;98714.09;;;8.69;59.66
59272;BME280;45043;51.068;7.026;2022-09-27T12:43:24;98706.47;;;8.61;59.59
59272;BME280;45043;51.068;7.026;2022-09-27T12:56:37;98726.44;;;7.97;60.01
59272;BME280;45043;51.068;7.026;2022-09-27T12:59:51;98761.41;;;7.80;60.47
59272;BME280;45043;51.068;7.026;2022-09-27T13:03:28;98749.69;;;7.33;62.47
59272;BME280;45043;51.068;7.026;2022-09-27T13:13:09;98756.16;;;7.12;64.48
59272;BME280;45043;51.068;7.026;2022-09-27T13:16:12;98748.69;;;7.09;64.61
59272;BME280;45043;51.068;7.026;2022-09-27T13:22:39;98761.00;;;7.15;65.20
59272;BME280;45043;51.068;7.026;2022-09-27T13:25:53;98749.25;;;7.11;65.08
59272;BME280;45043;51.068;7.026;2022-09-27T13:29:26;98783.88;;;7.03;64.77
59272;BME280;45043;51.068;7.026;2022-09-27T13:32:27;98757.88;;;7.00;64.97
59272;BME280;45043;51.068;7.026;2022-09-27T13:35:37;98763.94;;;7.07;64.73
59272;BME280;45043;51.068;7.026;2022-09-27T13:42:36;98751.81;;;7.24;64.24
59272;BME280;45043;51.068;7.026;2022-09-27T13:46:03;98743.22;;;7.29;63.56
59272;BME280;45043;51.068;7.026;2022-09-27T13:53:04;98735.09;;;7.49;63.71
59272;BME280;45043;51.068;7.026;2022-09-27T13:59:47;98736.94;;;7.67;62.97
59272;BME280;45043;51.068;7.026;2022-09-27T14:03:05;98729.09;;;7.78;62.80
59272;BME280;45043;51.068;7.026;2022-09-27T14:06:33;98725.69;;;7.90;62.58
59272;BME280;45043;51.068;7.026;2022-09-27T14:09:38;98725.19;;;7.99;62.25
59272;BME280;45043;51.068;7.026;2022-09-27T14:12:51;98727.31;;;8.09;61.50
59272;BME280;45043;51.068;7.026;2022-09-27T14:15:53;98732.63;;;8.09;61.43
59272;BME280;45043;51.068;7.026;2022-09-27T14:18:56;98736.88;;;8.10;60.42
59272;BME280;45043;51.068;7.026;2022-09-27T14:22:17;98750.75;;;8.05;59.60
59272;BME280;45043;51.068;7.026;2022-09-27T14:25:28;98745.16;;;8.14;59.92
59272;BME280;45043;51.068;7.026;2022-09-27T14:28:30;98743.69;;;8.18;59.05
59272;BME280;45043;51.068;7.026;2022-09-27T14:31:45;98734.34;;;8.15;59.08
59272;BME280;45043;51.068;7.026;2022-09-27T14:35:24;98746.84;;;8.26;58.98
59272;BME280;45043;51.068;7.026;2022-09-27T14:38:43;98748.00;;;8.30;58.66
59272;BME280;45043;51.068;7.026;2022-09-27T14:42:17;98727.13;;;8.41;59.06
59272;BME280;45043;51.068;7.026;2022-09-27T14:48:30;98744.78;;;8.59;59.15
59272;BME280;45043;51.068;7.026;2022-09-27T14:51:31;98763.63;;;8.50;58.55
59272;BME280;45043;51.068;7.026;2022-09-27T14:54:32;98771.53;;;8.39;58.08
59272;BME280;45043;51.068;7.026;2022-09-27T14:57:33;98757.78;;;8.30;57.79
59272;BME280;45043;51.068;7.026;2022-09-27T15:00:35;98772.97;;;8.16;57.78
59272;BME280;45043;51.068;7.026;2022-09-27T15:03:36;98769.03;;;8.07;58.16
59272;BME280;45043;51.068;7.026;2022-09-27T15:06:39;98780.22;;;8.09;58.32
59272;BME280;45043;51.068;7.026;2022-09-27T15:09:40;98770.66;;;8.08;58.73
59272;BME280;45043;51.068;7.026;2022-09-27T15:12:44;98762.94;;;8.06;58.77
59272;BME280;45043;51.068;7.026;2022-09-27T15:15:47;98770.16;;;7.99;59.52
59272;BME280;45043;51.068;7.026;2022-09-27T15:18:58;98783.00;;;7.96;59.21
59272;BME280;45043;51.068;7.026;2022-09-27T15:22:22;98773.16;;;7.84;59.42
59272;BME280;45043;51.068;7.026;2022-09-27T15:25:31;98774.84;;;7.79;59.26
59272;BME280;45043;51.068;7.026;2022-09-27T15:28:36;98767.00;;;7.72;59.54
59272;BME280;45043;51.068;7.026;2022-09-27T15:31:44;98767.00;;;7.72;59.58
59272;BME280;45043;51.068;7.026;2022-09-27T15:34:45;98766.09;;;7.78;59.46
59272;BME280;45043;51.068;7.026;2022-09-27T15:37:45;98767.13;;;7.77;59.10
59272;BME280;45043;51.068;7.026;2022-09-27T15:43:51;98763.97;;;7.69;59.25
59272;BME280;45043;51.068;7.026;2022-09-27T15:46:52;98771.97;;;7.62;59.84
59272;BME280;45043;51.068;7.026;2022-09-27T15:49:52;98764.25;;;7.60;60.06
59272;BME280;45043;51.068;7.026;2022-09-27T15:52:53;98761.41;;;7.62;59.84
59272;BME280;45043;51.068;7.026;2022-09-27T15:55:58;98763.81;;;7.64;59.96
59272;BME280;45043;51.068;7.026;2022-09-27T15:58:58;98762.56;;;7.66;60.00
59272;BME280;45043;51.068;7.026;2022-09-27T16:02:02;98761.41;;;7.62;60.85
59272;BME280;45043;51.068;7.026;2022-09-27T16:05:03;98761.03;;;7.58;60.80
59272;BME280;45043;51.068;7.026;2022-09-27T16:08:04;98762.88;;;7.58;60.99
59272;BME280;45043;51.068;7.026;2022-09-27T16:11:04;98755.38;;;7.55;60.13
59272;BME280;45043;51.068;7.026;2022-09-27T16:14:05;98762.19;;;7.44;59.98
59272;BME280;45043;51.068;7.026;2022-09-27T16:17:05;98760.41;;;7.38;59.81
59272;BME280;45043;51.068;7.026;2022-09-27T16:20:06;98751.53;;;7.32;59.37
59272;BME280;45043;51.068;7.026;2022-09-27T16:23:06;98759.31;;;7.27;59.31
59272;BME280;45043;51.068;7.026;2022-09-27T16:26:06;98743.88;;;7.24;59.44
59272;BME280;45043;51.068;7.026;2022-09-27T16:29:12;98763.00;;;7.20;59.33
59272;BME280;45043;51.068;7.026;2022-09-27T16:32:13;98766.72;;;7.12;59.58
59272;BME280;45043;51.068;7.026;2022-09-27T16:35:14;98758.22;;;7.10;59.57
59272;BME280;45043;51.068;7.026;2022-09-27T16:38:15;98754.81;;;7.03;59.55
59272;BME280;45043;51.068;7.026;2022-09-27T16:41:17;98757.47;;;7.03;59.17
59272;BME280;45043;51.068;7.026;2022-09-27T16:44:17;98753.03;;;6.97;59.15
59272;BME280;45043;51.068;7.026;2022-09-27T16:47:18;98750.81;;;6.94;59.10
59272;BME280;45043;51.068;7.026;2022-09-27T16:50:18;98755.63;;;7.03;59.46
59272;BME280;45043;51.068;7.026;2022-09-27T16:53:37;98750.56;;;7.02;59.26
59272;BME280;45043;51.068;7.026;2022-09-27T16:56:38;98746.56;;;6.93;59.44
59272;BME280;45043;51.068;7.026;2022-09-27T16:59:38;98740.34;;;6.87;59.62
59272;BME280;45043;51.068;7.026;2022-09-27T17:02:39;98742.59;;;6.83;59.52
59272;BME280;45043;51.068;7.026;2022-09-27T17:05:40;98739.72;;;6.78;59.64
59272;BME280;45043;51.068;7.026;2022-09-27T17:08:41;98738.16;;;6.71;59.70
59272;BME280;45043;51.068;7.026;2022-09-27T17:11:41;98746.88;;;6.71;60.05
59272;BME280;45043;51.068;7.026;2022-09-27T17:14:41;98734.94;;;6.69;60.32
59272;BME280;45043;51.068;7.026;2022-09-27T17:17:42;98739.81;;;6.72;60.26
59272;BME280;45043;51.068;7.026;2022-09-27T17:20:44;98740.41;;;6.67;60.14
59272;BME280;45043;51.068;7.026;2022-09-27T17:23:45;98731.94;;;6.65;60.10
59272;BME280;45043;51.068;7.026;2022-09-27T17:26:45;98734.75;;;6.63;59.86
59272;BME280;45043;51.068;7.026;2022-09-27T17:29:46;98730.75;;;6.61;59.83
59272;BME280;45043;51.068;7.026;2022-09-27T17:32:46;98724.44;;;6.62;59.76
59272;BME280;45043;51.068;7.026;2022-09-27T17:35:56;98729.72;;;6.62;60.03
59272;BME280;45043;51.068;7.026;2022-09-27T17:38:59;98721.94;;;6.67;59.92
59272;BME280;45043;51.068;7.026;2022-09-27T17:41:59;98724.00;;;6.65;60.13
59272;BME280;45043;51.068;7.026;2022-09-27T17:45:02;98714.25;;;6.66;60.36
59272;BME280;45043;51.068;7.026;2022-09-27T17:48:03;98720.34;;;6.66;60.82
59272;BME280;45043;51.068;7.026;2022-09-27T17:51:22;98719.50;;;6.72;60.92
59272;BME280;45043;51.068;7.026;2022-09-27T17:54:24;98717.00;;;6.77;61.22
59272;BME280;45043;51.068;7.026;2022-09-27T17:57:26;98707.69;;;6.75;61.49
59272;BME280;45043;51.068;7.026;2022-09-27T18:00:27;98717.44;;;6.74;61.68
59272;BME280;45043;51.068;7.026;2022-09-27T18:03:28;98712.38;;;6.73;61.74
59272;BME280;45043;51.068;7.026;2022-09-27T18:06:29;98709.38;;;6.69;61.98
59272;BME280;45043;51.068;7.026;2022-09-27T18:09:30;98701.25;;;6.64;62.23
59272;BME280;45043;51.068;7.026;2022-09-27T18:12:30;98711.81;;;6.64;62.31
59272;BME280;45043;51.068;7.026;2022-09-27T18:15:34;98708.59;;;6.62;62.75
59272;BME280;45043;51.068;7.026;2022-09-27T18:18:40;98709.19;;;6.64;62.92
59272;BME280;45043;51.068;7.026;2022-09-27T18:21:41;98705.81;;;6.57;63.31
59272;BME280;45043;51.068;7.026;2022-09-27T18:24:42;98699.91;;;6.55;63.61
59272;BME280;45043;51.068;7.026;2022-09-27T18:27:43;98703.78;;;6.52;63.89
59272;BME280;45043;51.068;7.026;2022-09-27T18:30:43;98696.50;;;6.48;64.01
59272;BME280;45043;51.068;7.026;2022-09-27T18:33:44;98692.69;;;6.44;64.59
59272;BME280;45043;51.068;7.026;2022-09-27T18:36:45;98685.19;;;6.41;64.79
59272;BME280;45043;51.068;7.026;2022-09-27T18:39:46;98680.59;;;6.29;65.08
59272;BME280;45043;51.068;7.026;2022-09-27T18:42:46;98682.44;;;6.29;65.58
59272;BME280;45043;51.068;7.026;2022-09-27T18:45:46;98703.09;;;6.38;65.12
59272;BME280;45043;51.068;7.026;2022-09-27T18:48:47;98687.84;;;6.41;65.01
59272;BME280;45043;51.068;7.026;2022-09-27T18:51:47;98689.91;;;6.38;65.15